High Point, NC

10:59 AM EDT on August 28, 2016 (GMT -0400)
Oak Hollow Marina | | Change Station

Elev 850 ft 36.01 °N, 80.00 °W | Updated 25 minutes ago

Partly Cloudy
Partly Cloudy
80.8 °F
Feels Like 85 °F
N
2.0
Wind Variable Wind from ENE
Gusts 4.0 mph

Today
High -- | Low -- °F
--% Chance of Precip.
Yesterday
High -- | Low -- °F
Precip. -- in
Pressure 30.21 in
Visibility 10.0 miles
Clouds Few 2500 ft
Few 25000 ft
Heat Index 85 °F
Dew Point 71 °F
Humidity 73%
Rainfall 0.00 in
Snow Depth Not available.
6:49 AM 7:52 PM
Waning Crescent, 15% visible
METAR KGSO 281454Z 04008KT 10SM FEW025 FEW250 27/19 A3024 RMK AO2 SLP229 T02720194 51009
Pressure 30.21 in
Visibility 10.0 miles
Clouds Few 2500 ft
Few 25000 ft
Heat Index 85 °F
Dew Point 71 °F
Humidity 73%
Rainfall 0.00 in
Snow Depth Not available.
6:49 AM 7:52 PM
Waning Crescent, 15% visible
METAR KGSO 281454Z 04008KT 10SM FEW025 FEW250 27/19 A3024 RMK AO2 SLP229 T02720194 51009

10-Day Weather Forecast

Almanac

Astronomy

Aug. 28, 2016 Rise Set
Actual Time
Civil Twilight
Nautical Twilight
Astronomical Twilight
Moon
Length of Visible Light
Length of Day
Tomorrow will be .
, % of the Moon is Illuminated

Today's Extremes

State Highs State Lows

Community

WunderPhotos

Upload Photos

1,935,579 photos uploaded!

WunderBlog® & News

Nearby

Air Quality

  Air Quality AQ Index Pollutant
Not available.

Snow Depth

Station Depth Elevation

Earthquake Activity

City Distance Mag. Time & Date
Minimum magnitude displayed is 2.5.

Coastal Water Temperatures

Place Temperature

Stations

Nearby Weather Stations

Station Location Temp. Windchill Dew Point Humidity Wind Precip. Elev Updated Type
                   

Watches & Warnings

There are currently no watches in effect.